0,00 -
Pkt Einheit
Index Typ
0,00% %
0,00 abs
ISIN: US78378X1072 WKN: A0AET0 Börse: Commerzbank CFD Datum: -

S&P 500 Index

Name Kurs +/- abs. +/- % Zeit 1 Woche % 1 Monat % 3 Monate % 6 Monate % 1 Jahr % 10 Jahre %
21st Century Fox Inc. 48,920 -0,090 -0,18 12.12.18 2,79 10,65 21,12 45,60 478,25
21st Century Fox Inc. 49,130 -0,110 -0,22 12.12.18 0,02 2,21 10,06 21,19 44,08 516,44
3M Co. 199,810 2,350 1,19 12.12.18 -1,18 1,41 -3,34 -2,49 -15,54 256,55
Abbott Laboratories 72,530 0,690 0,96 12.12.18 1,44 2,79 8,30 15,27 30,22 206,10
AbbVie Inc. 88,600 0,430 0,49 12.12.18 -2,15 -1,22 -4,98 -10,42 -8,00
Abiomed Inc. 330,690 2,560 0,78 12.12.18 1,07 -2,12 -15,84 -23,25 71,40 1.880,18
Accenture PLC 158,620 0,320 0,20 12.12.18 -3,47 -2,35 -6,89 -2,59 4,29 454,81
Activision Blizzard Inc. 48,430 0,230 0,48 12.12.18 4,11 -10,13 -39,85 -36,23 -24,80 419,08
Adobe Inc. 245,550 0,210 0,09 12.12.18 -0,13 3,75 -8,31 -2,79 42,31 994,74
Advance Auto Parts Inc. 166,980 1,180 0,71 12.12.18 -6,29 -0,05 -0,07 24,95 62,07 414,26
Advanced Micro Devices Inc. 20,480 0,500 2,50 12.12.18 -3,03 7,65 -36,42 29,21 106,87 798,25
AES Corp., The 15,890 0,150 0,95 12.12.18 2,78 2,38 20,11 21,86 48,23 118,57
Affiliated Managers Group Inc. 101,890 2,470 2,48 12.12.18 -3,10 -9,47 -28,32 -37,17 -48,21 207,18
AFLAC Inc. 42,900 0,260 0,61 12.12.18 -3,14 -3,47 -7,36 -6,21 -3,33 107,05
Agilent Technologies Inc. 71,750 0,700 0,99 12.12.18 -1,59 11,24 5,65 8,19 6,99 473,12
Air Products & Chemicals Inc. 157,710 1,780 1,14 12.12.18 -3,79 0,14 -5,13 -6,13 -3,18 224,57
Akamai Technologies Inc. 68,030 0,610 0,90 12.12.18 -0,99 -1,52 -10,50 -15,56 19,31 367,88
Alaska Air Group Inc. 62,020 -0,410 -0,66 12.12.18 -11,44 -5,69 -8,47 -0,42 -11,15
Albemarle Corp. 88,780 -0,300 -0,34 12.12.18 -4,73 -9,47 -10,74 -7,27 -31,90 337,77
Alexandria Real Est. Equ. Inc. 121,290 -3,340 -2,68 12.12.18 -1,82 -2,13 -4,97 -4,36 -7,69
Alexion Pharmaceuticals Inc. 117,010 2,180 1,90 12.12.18 -4,33 -1,34 -0,22 -0,48 3,00 611,09
Align Technology Inc. 219,290 -0,980 -0,44 12.12.18 -0,78 0,93 -42,57 -38,10 -6,43 2.693,50
Allegion PLC 87,840 0,530 0,61 12.12.18 -2,70 -0,85 -2,12 6,90 6,93
Allergan PLC 152,270 2,580 1,72 12.12.18 -1,12 -7,08 -20,00 -10,93 -11,40 342,13
Alliance Data Systems Corp. 179,370 1,200 0,67 12.12.18 -5,02 -11,94 -26,35 -20,11 -24,74 321,75
Alliant Energy Corp. 45,890 -0,390 -0,84 12.12.18 -0,61 1,55 5,28 17,52 4,27 201,91
Allstate Corp., The 82,400 -0,090 -0,11 12.12.18 -4,63 -10,00 -15,56 -11,87 -20,42 203,39
Alphabet Inc. (Class A) 1.073,730 12,350 1,16 12.12.18 0,97 2,32 -8,35 -6,48 2,38 580,09
Alphabet Inc. (Class C) 1.063,680 11,930 1,13 12.12.18 1,22 2,41 -8,53 -6,64 2,23
Altria Group Inc. 53,330 -0,620 -1,15 12.12.18 -1,97 -12,86 -15,92 -7,86 -25,64 247,65
Amazon.com Inc. 1.663,540 20,300 1,24 12.12.18 -0,29 1,63 -16,41 -2,07 42,78 3.145,93
Ameren Corp. 69,840 -0,450 -0,64 12.12.18 -0,29 2,12 6,84 24,58 13,82 113,25
American Airlines Group Inc. 34,350 0,250 0,73 12.12.18 -6,38 -6,81 -12,51 -20,87 -31,94 80,22
American Electric Power Co.Inc 79,520 -0,240 -0,30 12.12.18 1,40 4,36 9,67 25,09 4,60 166,58
American Express Co. 107,480 2,080 1,97 12.12.18 -0,15 0,93 -0,37 6,70 8,16 428,42
American International Grp Inc 37,680 1,090 2,98 12.12.18 -7,58 -11,28 -27,98 -30,94 -37,13 4,67
American Tower Corp. 164,650 -1,990 -1,19 12.12.18 0,72 2,25 11,77 16,66 14,73 513,91
American Water Works Co. Inc. 97,120 0,640 0,66 12.12.18 1,45 6,40 9,85 22,19 8,73 375,85
Ameriprise Financial Inc. 112,710 1,090 0,98 12.12.18 -7,18 -9,88 -20,30 -23,26 -33,15 450,61
AmerisourceBergen Corp. 83,220 0,740 0,90 12.12.18 -5,01 -7,45 -2,34 -5,47 -5,24 403,45
AMETEK Inc. 72,610 1,880 2,66 12.12.18 0,74 -0,18 -8,94 -4,27 0,67 467,80
Amgen Inc. 196,410 0,230 0,12 12.12.18 -0,68 2,53 -1,55 6,13 11,43 237,88
Amphenol Corp. 84,700 0,820 0,98 12.12.18 -1,12 -4,24 -11,44 -6,79 -5,54 688,64
Anadarko Petroleum Corp. 52,560 0,920 1,78 12.12.18 -0,79 -6,58 -14,91 -26,33 8,28 41,94
Analog Devices Inc. 89,080 0,440 0,50 12.12.18 -1,50 5,80 -2,13 -12,68 4,21 359,65
Ansys Inc. 156,960 3,170 2,06 12.12.18 0,20 -1,34 -16,29 -10,80 8,00 444,81
Anthem Inc. 278,560 2,320 0,84 12.12.18 -5,00 -1,45 4,59 20,23 21,77 660,68
AON PLC 155,400 -0,350 -0,22 12.12.18 -4,50 -4,60 2,86 9,54 12,20 279,58
Apache Corp. 31,330 0,760 2,49 12.12.18 -10,59 -13,09 -30,58 -26,73 -21,12 -56,21
Apartment Inv. & Managem. Co. 46,240 -1,110 -2,34 12.12.18 0,35 0,85 4,33 11,07 5,38 301,39
Apple Inc. 169,100 0,470 0,28 12.12.18 -4,30 -12,91 -23,51 -12,06 -1,51 1.104,18
Applied Materials Inc. 34,200 0,180 0,53 12.12.18 -3,44 4,84 -10,91 -32,76 -32,24 227,27
Aptiv PLC 67,370 0,610 0,91 12.12.18 -5,88 -9,57 -20,61 -33,94 -21,18
Archer Daniels Midland Co. 45,190 0,640 1,44 12.12.18 -0,92 -5,74 -9,42 0,20 8,19 69,89
Arconic Inc. 20,260 0,120 0,60 12.12.18 -2,83 0,90 -10,71 12,56 -17,81
Arista Networks Inc. 231,990 2,870 1,25 12.12.18 0,98 -1,96 -13,39 -15,53 6,30
Assurant Inc. 90,390 0,380 0,42 12.12.18 -5,26 -12,86 -10,16 -5,79 -9,88 305,88
AT & T Inc. 30,160 0,460 1,55 12.12.18 -1,85 -2,01 -9,75 -12,20 -20,84 7,03
Autodesk Inc. 137,790 3,920 2,93 12.12.18 -1,47 5,89 -8,62 0,31 29,59 648,86
Automatic Data Processing Inc. 139,570 -0,420 -0,30 12.12.18 -2,81 -3,19 -5,14 0,19 19,24 332,47
AutoZone Inc. 889,340 11,000 1,25 12.12.18 1,05 12,21 16,40 29,35 25,07 586,22
Avalonbay Communities Inc. 183,830 -4,090 -2,18 12.12.18 -1,86 -0,23 0,06 9,08 0,10 191,61
Avery Dennison Corp. 91,540 0,440 0,48 12.12.18 -2,27 0,10 -13,48 -14,78 -20,02 194,34
Baker Hughes a GE Co. 21,570 0,280 1,32 12.12.18 -2,57 -8,76 -33,43 -37,55 -30,31
Ball Corp. 48,190 0,360 0,75 12.12.18 -1,71 -0,21 11,55 27,42 23,91 381,18
Bank of America Corp. 24,520 -0,060 -0,24 12.12.18 -9,19 -11,64 -19,45 -17,99 -16,37 64,23
Baxter International Inc. 67,000 0,810 1,22 12.12.18 -0,39 8,84 -11,93 -11,08 4,18 147,36
BB&T Corp. 46,820 0,260 0,56 12.12.18 -3,20 -7,36 -7,60 -13,30 -6,88 73,09
Becton, Dickinson & Co. 235,560 -1,100 -0,46 12.12.18 -3,82 -0,28 -8,82 0,82 7,57 268,12
Berkshire Hathaway Inc. 202,480 0,200 0,10 12.12.18 -3,64 -6,01 -5,64 3,69 1,71 212,28
Best Buy Co. Inc. 58,980 0,890 1,53 12.12.18 -5,27 -12,17 -24,63 -20,35 -7,15 141,52
Biogen Inc. 322,610 2,820 0,88 12.12.18 -0,06 1,16 -5,12 5,36 -1,57 586,40
Bk of New York MellonCorp.,The 48,060 0,390 0,82 12.12.18 -1,31 0,17 -7,59 -16,66 -12,57 84,78
Blackrock Inc. 390,070 4,410 1,14 12.12.18 -4,57 -3,79 -17,01 -28,70 -24,66 224,63
Block H. & R. Inc. 28,040 0,280 1,01 12.12.18 1,89 -1,23 9,75 -5,27 1,82 33,33
Boeing Co. 326,690 4,660 1,45 12.12.18 -4,62 -8,50 -7,58 -11,85 12,68 733,39
Booking Holdings Inc. 1.856,150 3,800 0,21 12.12.18 -0,38 -2,63 -1,06 -12,94 7,68 2.769,30
BorgWarner Inc. 35,140 0,260 0,75 12.12.18 -6,67 -7,28 -19,62 -28,45 -34,17 232,45
Boston Properties Inc. 124,370 -2,710 -2,13 12.12.18 -4,46 -0,06 -2,45 1,88 -1,43 122,09
Boston Scientific Corp. 37,100 0,540 1,48 12.12.18 1,59 0,46 1,81 9,63 44,87 417,43
Brighthouse Financial Inc. 33,190 0,760 2,34 12.12.18 -14,48 -19,11 -17,44 -27,91 -44,66
Bristol-Myers Squibb Co. 53,440 1,010 1,93 12.12.18 2,71 1,12 -11,42 0,58 -15,55 137,41
Broadcom Ltd. 254,980 8,140 3,30 12.12.18 9,89 14,02 10,91 -2,47 -1,44 1.333,28
Broadridge Financial Solutions 99,990 1,200 1,21 12.12.18 -3,01 -5,88 -26,92 -13,97 11,87
Brown-Forman Corp. Class B 46,520 0,080 0,17 12.12.18 -0,30 -3,65 -8,19 -11,84 -28,92 184,34
C.H. Robinson Worldwide Inc. 88,120 0,050 0,06 12.12.18 -0,84 -0,03 -11,09 -2,98 0,14 79,25
Cabot Oil & Gas Corp. 24,450 -0,740 -2,94 12.12.18 -2,59 -3,70 10,83 3,65 -11,41 265,20
Cadence Design Systems Inc. 44,390 0,560 1,28 12.12.18 -0,76 -0,96 -3,23 -0,27 2,54 1.526,01
Campbell Soup Co. 38,860 0,040 0,10 12.12.18 0,70 -0,79 -3,50 10,62 -21,91 35,50
Capital One Financial Corp. 82,040 0,680 0,84 12.12.18 -3,36 -7,94 -15,78 -14,78 -14,73 191,75
Cardinal Health Inc. 53,730 0,190 0,35 12.12.18 -2,43 -3,93 1,49 0,34 -10,84 65,12
Carmax Inc. 63,340 0,150 0,24 12.12.18 -1,11 -2,60 -21,49 -14,23 -5,26 662,21
Carnival Corp. 56,520 0,450 0,80 12.12.18 -3,05 -2,16 -9,61 -9,09 -15,07 160,22
Caterpillar Inc. 125,370 2,130 1,73 12.12.18 -3,05 0,30 -13,11 -20,39 -12,59 197,93
Cboe Global Markets Inc. 104,420 1,060 1,03 12.12.18 0,52
CBRE Group Inc. 40,810 -0,160 -0,39 12.12.18 -2,23 -4,47 -12,16 -16,27 -5,82 900,25
CBS Corp. Class B 48,660 0,420 0,87 12.12.18 -5,24 -14,83 -11,75 -7,10 -16,06 493,41
Celgene Corp. 70,900 1,410 2,03 12.12.18 -2,18 -0,17 -18,32 -8,48 -34,98 186,00
Centene Corp. 134,290 1,460 1,10 12.12.18 -5,55 -2,39 -6,92 8,55 33,14
CenterPoint Energy Inc. 28,890 0,110 0,38 12.12.18 2,99 2,81 1,08 11,50 1,80 127,12
CenturyLink Inc. 17,320 0,350 2,06 12.12.18 -2,97 -9,93 -24,50 -3,51 10,32 -30,55
Cerner Corp. 56,150 1,180 2,15 12.12.18 0,04 -1,07 -13,32 -7,43 -20,20 480,96
CF Industries Holdings Inc. 41,950 0,600 1,45 12.12.18 -1,41 -18,18 -20,22 -3,67 3,33 326,93
Charter Communications Inc. 316,780 4,450 1,42 12.12.18 -1,65 -2,03 1,37 8,87 -4,00
Chevron Corp. 115,620 0,150 0,13 12.12.18 -1,38 -1,51 -0,15 -9,02 -3,39 46,35
Chipotle Mexican Grill Inc. 471,310 -1,040 -0,22 12.12.18 0,63 -3,75 -4,74 1,07 48,03 720,10
Chubb Corp., The 128,650 0,730 0,57 12.12.18 -2,78 1,15 -4,46 -2,77 -14,52 173,08
Church & Dwight Co. Inc. 67,840 -0,560 -0,82 12.12.18 1,86 2,77 14,15 36,53 40,19 427,53
Cigna Corp. 207,690 1,750 0,85 12.12.18 -4,66 -4,48 11,13 16,14 -0,38 1.236,49
Cimarex Energy Co. 72,810 0,540 0,75 12.12.18 -10,02 -15,52 -18,35 -18,99 -35,89 170,37
Cincinnati Financial Corp. 79,710 0,570 0,72 12.12.18 -2,21 -0,70 4,92 13,77 6,99 163,94
Cintas Corp. 173,160 2,730 1,60 12.12.18 -3,53 -2,08 -18,67 -9,95 10,16 595,98
Cisco Systems Inc. 47,420 0,330 0,70 12.12.18 0,15 3,95 1,13 7,92 25,09 179,11
Citigroup Inc. 55,980 -0,240 -0,43 12.12.18 -10,09 -12,82 -20,61 -17,20 -26,49 -27,30
Citizens Financial Group Inc. 31,630 -0,050 -0,16 12.12.18 -8,16 -15,92 -21,63 -25,07 -24,55
Citrix Systems Inc. 110,320 1,060 0,97 12.12.18 1,31 4,52 -1,61 3,48 26,48 379,03
Clorox Co., The 163,840 -2,290 -1,38 12.12.18 0,13 1,72 8,62 28,39 12,88 208,90
CME Group Inc. 188,570 -0,940 -0,50 12.12.18 0,20 1,14 8,31 10,78 23,22 348,38
CMS Energy Corp. 52,730 -0,430 -0,81 12.12.18 0,30 4,00 4,81 21,78 7,24 432,63
Cognizant Tech. Solutions 68,030 0,770 1,14 12.12.18 -2,86 -2,19 -11,20 -13,06 -4,79 650,47
Colgate-Palmolive Co. 65,280 0,730 1,13 12.12.18 3,49 6,41 -3,97 2,43 -9,95 120,47
Comcast Corp. Class A 36,980 0,140 0,38 12.12.18 -1,88 -2,68 2,47 14,21 -6,40 372,59
Comerica Inc. 72,520 1,170 1,64 12.12.18 -5,08 -13,30 -23,62 -24,28 -15,55 277,51
ConAgra Brands Inc. 30,590 -0,020 -0,07 12.12.18 -4,64 -13,22 -18,62 -18,86 -18,54 111,26
Concho Resources Inc. 122,210 0,360 0,30 12.12.18 -4,83 -5,88 -12,84 -8,70 -12,39 452,49
ConocoPhillips 65,270 -0,170 -0,26 12.12.18 -2,47 0,20 -9,31 -5,99 25,62 66,61
Consolidated Edison Inc. 82,470 -0,780 -0,94 12.12.18 0,59 3,91 2,89 13,78 -6,38 112,11
Constellation Brands Inc. 186,730 -2,040 -1,08 12.12.18 -2,32 -7,55 -13,55 -18,71 -15,13 1.185,13
Cooper Companies Inc. 254,730 -0,040 -0,02 12.12.18 -7,34 -2,68 -3,94 11,72 10,92 1.823,94
Copart Inc. 49,260 0,700 1,44 12.12.18 -0,04 -0,04 -25,63 -14,49 12,72 283,79
Corning Inc. 31,980 0,390 1,23 12.12.18 -0,53 0,85 -5,97 11,82 -2,02 278,46
Costco Wholesale Corp. 227,800 1,300 0,57 12.12.18 0,64 -2,85 -6,04 11,19 20,98 326,59
Coty Inc. 7,750 0,170 2,24 12.12.18 -2,27 -10,40 -37,25 -45,54 -58,38
Crown Castle Internatl Corp. 115,480 -0,660 -0,57 12.12.18 0,42 5,24 2,91 10,32 4,14 553,54
CSX Corp. 68,880 0,790 1,16 12.12.18 -2,44 -1,09 -7,09 3,19 20,88 548,86
Cummins Inc. 135,970 1,570 1,17 12.12.18 -7,11 -5,81 -4,29 -5,31 -19,65 446,72
CVS Health Corp. 74,500 1,090 1,48 12.12.18 -5,59 -7,27 -3,65 12,28 2,26 161,86
D.R. Horton Inc. 35,970 0,230 0,64 12.12.18 -0,85 6,14 -17,31 -19,92 -28,06 362,34
Danaher Corp. 102,030 0,710 0,70 12.12.18 -4,02 0,47 -3,55 -1,10 8,87 423,60
Darden Restaurants Inc. 105,310 3,560 3,50 12.12.18 -2,26 -6,30 -11,31 13,44 20,85 378,68
DaVita Inc. 58,520 0,950 1,65 12.12.18 -8,66 -14,19 -13,38 -18,45 -16,88 144,39
Deere & Co. 148,140 1,140 0,78 12.12.18 -2,28 2,47 0,24 -6,00 -1,94 301,90
Delta Air Lines Inc. 56,270 0,380 0,68 12.12.18 -1,18 -0,76 -1,95 3,15 4,94 435,90
Dentsply Sirona Inc. 38,120 1,120 3,03 12.12.18 3,53 4,35 -1,63 -13,72 -41,34 43,90
Devon Energy Corp. 27,280 0,530 1,98 12.12.18 -3,16 -13,53 -34,97 -34,94 -28,98 -59,91
Diamondback Energy Inc. 98,480 -1,560 -1,56 12.12.18 -6,28 -10,66 -18,28 -17,16 -11,70
Digital Realty Trust Inc. 115,600 -1,190 -1,02 12.12.18 1,76 3,62 -5,95 6,29 0,61
Discover Financial Services 64,150 0,480 0,75 12.12.18 -3,36 -7,48 -17,30 -14,82 -14,57 615,16
Discovery Inc. 26,050 0,140 0,54 12.12.18 1,09 -10,82 -8,15 14,15 42,12 316,47
Discovery Inc. 28,380 0,440 1,57 12.12.18 1,47 -12,43 -7,56 18,15 44,43 334,28
Dish Network Corp. 32,200 0,580 1,83 12.12.18 0,85 1,74 -8,78 -0,56 -35,12 192,99
Dollar General Corp. (New) 105,890 -0,670 -0,63 12.12.18 1,72 -8,53 -4,35 9,53 16,07 381,76
Dollar Tree Inc. 84,580 -0,230 -0,27 12.12.18 -1,94 -1,64 -0,46 -2,32 -20,37 509,77
Dominion Energy Inc. 75,260 -0,990 -1,30 12.12.18 -0,08 2,49 5,16 15,98 -9,79 117,51
Dover Corp. 78,340 -0,030 -0,04 12.12.18 -6,17 -8,15 -10,73 -0,37 -19,40 222,87
Dowdupont Inc. 54,350 1,090 2,05 12.12.18 -3,79 -5,81 -21,50 -22,11 -23,22
DTE Energy Co. 118,740 -1,130 -0,94 12.12.18 -0,36 -0,26 5,06 23,06 4,15 244,77
Duke Energy Corp. (New) 89,600 -1,190 -1,31 12.12.18 -0,50 4,28 10,77 23,62 2,83 104,29
Duke Realty Corp. 27,650 -0,790 -2,78 12.12.18 -1,32 -2,78 -3,73 -3,86 -0,58
DXC Technology Co. 58,150 -0,190 -0,33 12.12.18 -6,26 -6,22 -36,39 -31,34 -38,65
E*TRADE Financial Corp. 45,620 0,720 1,60 12.12.18 -6,25 -12,32 -14,74 -29,29 -8,47 322,41
Eastman Chemical Co. 72,530 -0,020 -0,03 12.12.18 -6,62 -11,15 -24,45 -33,74 -22,03 391,06
Eaton Corporation PLC 71,110 0,190 0,27 12.12.18 -5,17 -1,93 -17,29 -11,57 -8,55 219,60
eBay Inc. 29,040 -0,010 -0,03 12.12.18 -0,75 0,24 -15,24 -28,21 -22,44 383,50
Ecolab Inc. 154,900 -0,370 -0,24 12.12.18 -1,17 -1,96 -0,53 6,79 14,87 335,60
Edison International 59,540 0,650 1,10 12.12.18 3,14 11,17 -12,16 0,02 -13,18 83,60
Edwards Lifesciences Corp. 163,140 -0,050 -0,03 12.12.18 3,68 10,38 12,57 9,84 41,16 1.243,55
Electronic Arts Inc. 82,990 -0,450 -0,54 12.12.18 2,20 -5,33 -26,56 -40,63 -22,91 387,89
Eli Lilly and Company 114,340 -0,160 -0,14 12.12.18 -1,87 1,01 7,90 33,75 31,86 214,03
Emerson Electric Co. 61,080 -1,200 -1,93 12.12.18 -6,96 -8,85 -20,79 -16,57 -8,38 88,75
Entergy Corp. 88,910 -0,680 -0,76 12.12.18 -0,08 3,49 5,79 15,50 6,79 9,04
EOG Resources Inc. 103,930 1,860 1,82 12.12.18 -0,13 2,65 -11,13 -12,27 3,64 205,81
Equifax Inc. 98,050 1,010 1,04 12.12.18 -1,24 -2,32 -27,72 -21,34 -17,06 317,59
Equinix Inc. 387,120 -2,680 -0,69 12.12.18 0,53 -0,59 -11,91 -4,49 -14,01 669,62
Equity Residential 69,500 -1,920 -2,69 12.12.18 -1,78 2,16 2,57 8,24 4,83 119,59
Essex Property Trust Inc. 258,120 -5,170 -1,96 12.12.18 -0,57 1,34 4,08 8,17 3,60 221,81
Estée Lauder Compan. Inc., The 138,730 -0,380 -0,27 12.12.18 -3,72 -1,68 -0,72 -11,69 11,03 837,36
Everest Reinsurance Group Ltd. 220,020 -2,680 -1,20 12.12.18 -1,11 2,89 2,81 -3,20 0,09
Evergy Inc. 59,830 -0,800 -1,32 12.12.18 -0,35 0,88 2,89 14,51
Eversource Energy 69,450 -0,720 -1,03 12.12.18 0,73 6,06 9,87 29,38 8,16 192,67
Exelon Corp. 46,890 0,000 0,00 12.12.18 -0,13 2,56 6,28 15,81 14,34 -14,29
Expedia Group Inc. 121,100 2,750 2,32 12.12.18 1,92 -0,94 -7,73 -2,64 2,03 1.423,27
Expeditors Intl of Wash. Inc. 72,260 0,910 1,28 12.12.18 -4,35 2,31 -3,85 -7,39 12,29 127,16
Express Scripts Holding Inc. 96,930 0,510 0,53 12.12.18 -1,96 -1,29 7,74 22,43 41,38 237,27
Extra Space Storage Inc. 97,300 -1,010 -1,03 12.12.18 0,41 6,48 7,67 -1,15 10,74 988,37
Exxon Mobil Corp. 76,020 -0,660 -0,86 12.12.18 -4,29 -4,77 -8,55 -7,77 -8,14 -5,51
F5 Networks Inc. 170,350 3,060 1,83 12.12.18 0,45 -4,76 -10,61 -4,07 25,73 647,15
Facebook Inc. 144,500 2,420 1,70 12.12.18 4,81 2,08 -10,80 -24,90 -18,34
Fastenal Co. 54,770 -0,130 -0,24 12.12.18 -4,37 1,20 -6,79 2,41 3,42 243,39
Federal Realty Invest. Trust 130,390 -2,930 -2,20 12.12.18 -0,67 1,50 -0,42 6,61 -0,08 122,13
Fedex Corp. 188,270 -1,380 -0,73 12.12.18 -12,64 -14,28 -25,58 -29,10 -21,39 206,93
Fidelity Natl Inform.Svcs Inc. 106,740 0,910 0,86 12.12.18 0,58 0,99 -2,52 -0,40 13,26 547,69
Fifth Third Bancorp 24,860 0,270 1,10 12.12.18 -4,68 -10,09 -13,89 -20,52 -18,36 217,90
FirstEnergy Corp. 39,230 -0,380 -0,96 12.12.18 1,76 1,13 3,92 17,74 20,12 -27,53
Fiserv Inc. 77,640 0,880 1,15 12.12.18 0,95 -1,21 -3,89 2,36 18,35 826,22
FleetCor Technologies Inc. 181,410 -1,130 -0,62 12.12.18 -4,46 -6,34 -17,92 -11,50 -4,16
Flir Systems Inc. 44,210 0,130 0,29 12.12.18 -1,45 -6,33 -29,42 -18,52 -5,74 76,14
Flowserve Corp. 44,980 0,280 0,63 12.12.18 -3,14 -8,71 -15,55 5,98 9,04 159,38
Fluor Corp. (New) 34,110 0,310 0,92 12.12.18 -12,00 -24,23 -40,80 -31,53 -32,36 -29,22
FMC Corp. 79,680 0,870 1,10 12.12.18 -4,25 -3,10 -4,32 -11,34 -11,61 258,35
Foot Locker Inc. 51,920 -0,260 -0,50 12.12.18 -5,48 2,02 7,38 -10,39 16,49 618,12
Ford Motor Co. 8,640 0,100 1,17 12.12.18 -5,88 -8,96 -7,49 -28,65 -31,43 184,21
Fortinet Inc. 75,190 0,750 1,01 12.12.18 2,47 1,97 -15,24 17,28 78,26
Fortive Corp. 70,770 0,710 1,01 12.12.18 -2,86 -5,59 -17,04 -9,61 -2,41
Fortune Brands Home & Securi 42,120 0,370 0,89 12.12.18 -0,26 -1,63 -24,05 -27,37 -37,35
Franklin Resources Inc. 31,980 0,440 1,40 12.12.18 -3,88 3,29 2,04 -6,11 -27,57 61,78
Freep. McMoRan Copp.&Gold Inc. Reg. Shares DL-,10 11,070 0,310 2,88 12.12.18 -3,74 -0,81 -18,78 -38,02 -29,56 -0,63
Gallagher & Co., Arthur J. 75,450 0,530 0,71 12.12.18 -0,87 -2,85 2,58 13,68 16,45 222,85
Gap Inc. 27,470 0,320 1,18 12.12.18 2,04 0,22 -3,14 -16,58 -19,11 108,26
Garmin Ltd. 66,270 0,880 1,35 12.12.18 -0,20 0,98 -3,18 6,25 8,41 238,28
Gartner Inc. 144,780 1,000 0,70 12.12.18 -3,43 -0,51 -7,35 4,56 20,00
General Dynamics Corp. 171,220 -1,050 -0,61 12.12.18 -1,13 -5,41 -12,73 -13,74 -12,72 221,36
General Electric Co. 6,710 -0,050 -0,74 12.12.18 -7,83 -15,96 -46,79 -52,00 -62,53 -60,78
General Mills Inc. 38,560 -0,170 -0,44 12.12.18 -4,25 -15,59 -18,84 -13,39 -31,22 26,14
General Motors Co. 35,680 0,990 2,85 12.12.18 -2,30 -0,03 4,76 -19,24 -14,09 1.165,25
Genuine Parts Co. 100,110 1,000 1,01 12.12.18 -3,03 -0,18 -1,56 5,30 7,96 159,76
Gilead Sciences Inc. 68,140 0,420 0,62 12.12.18 -2,03 -3,33 -7,88 -4,94 -10,45 202,64
Global Payments Inc. 104,360 1,360 1,32 12.12.18 -2,46 -4,48 -18,44 -11,90 4,21 540,05
Goodyear Tire & Rubber Co.,The 21,890 0,180 0,83 12.12.18 -4,87 -0,73 -4,74 -13,00 -30,66 256,51
Grainger Inc., W.W. 287,800 1,070 0,37 12.12.18 -4,26 -1,33 -18,71 -9,72 29,41 318,68
Halliburton Co. 29,610 0,810 2,81 12.12.18 -5,82 -13,32 -22,36 -38,13 -34,55 72,35
Hanesbrands Inc. 14,780 -0,100 -0,67 12.12.18 -4,34 -8,60 -17,52 -29,35 -29,45 479,04
Harley-Davidson Inc. 36,020 -0,090 -0,25 12.12.18 -13,95 -11,67 -19,02 -16,91 -29,40 120,85
Harris Corp. 147,020 2,040 1,41 12.12.18 5,74 -1,13 -9,07 -3,50 3,96 306,92
Hartford Finl SvcsGrp Inc.,The 41,390 0,050 0,12 12.12.18 -3,34 -9,05 -15,44 -21,91 -26,13 185,84
Hasbro Inc. 84,830 0,970 1,16 12.12.18 -4,05 -11,32 -17,54 -6,99 -7,81 213,72
HCA Healthcare Inc. 134,960 1,070 0,80 12.12.18 -5,04 -4,90 2,63 26,95 56,11 164,78
HCP Inc. 28,910 -0,690 -2,33 12.12.18 -0,58 0,31 8,56 19,12 6,52 27,58
Helmerich & Payne Inc. 61,940 1,940 3,23 12.12.18 2,23 2,31 -5,88 -5,59 5,32 178,13
Henry Schein Inc. 85,120 0,460 0,54 12.12.18 -5,34 0,32 2,72 16,65 25,53 401,44
Hershey Co., The 109,030 1,120 1,04 12.12.18 0,86 0,33 2,84 16,76 -3,85 205,75
Hess Corp. 51,740 -0,240 -0,46 12.12.18 -5,79 -9,95 -20,47 -14,44 13,94 8,47
Hewlett Packard Enterprise Co. 14,640 -0,100 -0,68 12.12.18 -2,72 -4,19 -10,73 -7,28 0,97
Hilton Worldwide Holdings Inc. 72,780 0,380 0,52 12.12.18 -3,15 3,69 -6,64 -13,16 -5,48
HollyFrontier Corp. 57,060 1,950 3,54 12.12.18 -1,86 -10,06 -19,24 -21,71 20,76
Hologic Inc. 42,880 0,440 1,04 12.12.18 -2,32 4,66 9,81 10,57 -1,58 227,33
Honeywell International Inc. 138,290 1,480 1,08 12.12.18 -3,08 -6,64 -15,62 -9,18 -10,05 377,69
Hormel Foods Corp. 45,170 0,310 0,69 12.12.18 0,58 -0,31 7,47 24,23 22,11 515,40
Host Hotels & Resorts Inc. 17,850 -0,120 -0,67 12.12.18 -4,65 -5,05 -16,35 -16,82 -10,08 146,21
HP Inc. 22,550 0,000 0,00 12.12.18 -2,97 -6,00 -8,33 -4,53 7,48 38,09
Humana Inc. 310,520 4,450 1,45 12.12.18 -4,30 -8,03 -6,35 1,51 21,94 876,48
Hunt (J.B.) Transport Svcs Inc 98,300 -0,360 -0,36 12.12.18 -2,32 -7,44 -21,54 -24,86 -11,63 311,30
Huntington Bancshares Inc. 12,720 -0,040 -0,31 12.12.18 -7,02 -12,70 -19,85 -18,41 -14,11 74,01
Huntington Ingalls Industrie 202,640 2,030 1,01 12.12.18 -0,48 -5,37 -17,56 -8,63 -13,23
IDEXX Laboratories Inc. 199,710 3,240 1,65 12.12.18 1,48 0,45 -18,71 -10,18 25,39 1.175,70
Illinois Tool Works Inc. 132,210 1,080 0,82 12.12.18 -0,41 0,78 -6,68 -11,82 -19,33 322,40
Illumina Inc. 336,920 8,020 2,44 12.12.18 0,81 8,55 -3,66 15,36 58,45 1.432,85
Incyte Corp. 67,670 2,070 3,16 12.12.18 3,23 7,65 1,74 -4,12 -29,07 2.118,69
Ingersoll-Rand PLC 98,090 0,880 0,91 12.12.18 -4,25 -3,03 -4,63 6,12 13,56 527,58
Int. Business Machines (IBM) 121,160 0,270 0,22 12.12.18 -0,36 0,22 -17,34 -17,51 -22,70 47,40
Intel Corp. 47,830 0,450 0,95 12.12.18 0,17 2,53 6,45 -12,75 10,39 224,27
Intercontinental Exchange Inc. Registered Shares DL -,01 78,000 -0,090 -0,12 12.12.18 -1,42 0,13 2,19 3,39 9,55 407,88
International Paper Co. 44,260 0,120 0,27 12.12.18 -3,66 -2,98 -15,49 -24,55 -21,84 263,68
Interpublic Group of Comp.Inc. 23,920 0,980 4,27 12.12.18 3,15 -0,21 4,91 1,96 16,85 534,48
Intl Flavors & Fragrances Inc. 136,730 -1,040 -0,75 12.12.18 -1,10 -4,38 4,25 9,89 -10,20 354,40
Intuit Inc. 209,180 3,070 1,49 12.12.18 0,67 -1,73 -7,36 0,81 34,22 809,87
Intuitive Surgical Inc. 515,630 7,570 1,49 12.12.18 -0,63 2,31 -6,16 4,18 39,18 1.051,13
Invesco Ltd. 17,640 0,240 1,38 12.12.18 -9,68 -13,87 -26,65 -36,91 -52,54 50,38
IPG Photonics Corp. 122,300 0,590 0,48 12.12.18 -10,87 -5,27 -22,32 -49,93 -40,34 957,96
IQVIA Holdings Inc. 122,340 0,840 0,69 12.12.18 -0,66 1,01 -2,25 16,57 20,35
Iron Mountain Inc. 34,070 -0,390 -1,13 12.12.18 0,44 4,29 -5,41 -2,66 -9,87 76,80
J.M. Smucker Co. 101,680 0,800 0,79 12.12.18 -0,55 -10,96 -7,73 -3,98 -13,79 146,62
Jack Henry & Associates Inc. 134,740 0,280 0,21 12.12.18 -1,76 -4,65 -16,59 4,00 15,85 639,92
Jacobs Engineering Group Inc. 60,830 0,940 1,57 12.12.18 -3,09 -19,00 -18,93 -8,08 -11,05 29,98
Jefferies Group Inc. 0 0 0,00 -
Johnson & Johnson 147,100 0,600 0,41 12.12.18 0,73 1,02 5,55 20,04 3,16 156,94
Johnson Controls Inc. 32,600 0,370 1,15 12.12.18 -3,81 -4,65 -13,23 -7,36 -14,77 78,92
JPMorgan Chase & Co. 101,020 0,650 0,65 12.12.18 -5,79 -7,33 -10,67 -8,32 -5,46 226,50
Juniper Networks Inc. 28,460 0,630 2,26 12.12.18 0,28 0,25 3,30 2,12 -1,59 63,00
Kansas City Southern 97,540 -0,500 -0,51 12.12.18 -3,19 -2,04 -17,67 -11,62 -11,57 454,84
Kellogg Co. 61,000 0,130 0,21 12.12.18 -1,20 -5,13 -18,07 -7,17 -7,51 43,43
Keycorp 16,010 0,090 0,57 12.12.18 -8,25 -13,32 -22,73 -22,43 -19,95 100,13
Keysight Technologies Inc. 60,670 1,140 1,92 12.12.18 -0,51 4,33 -8,26 -1,51 44,35
Kimberly-Clark Corp. 113,920 -1,840 -1,59 12.12.18 1,25 3,21 -2,05 10,04 -2,13 121,08
Kimco Realty Corp. 16,280 -0,460 -2,75 12.12.18 0,43 0,99 -4,68 -2,69 -11,57 1,81
Kinder Morgan Inc. 16,230 0,110 0,68 12.12.18 -2,70 -7,10 -10,63 -4,13 -8,56 -84,90
KLA-Tencor Corp. 93,540 0,810 0,87 12.12.18 -2,46 1,35 -9,10 -17,65 -9,24 341,23
Kohl's Corp. 64,010 1,060 1,68 12.12.18 -1,37 -20,73 -21,36 -18,27 27,28 81,07
Kraft Heinz Co., The 48,260 -0,120 -0,25 12.12.18 -3,44 -10,08 -18,37 -19,73 -38,87
Kroger Co., The 29,750 0,510 1,74 12.12.18 3,88 -5,16 -6,24 15,80 12,99 132,79
L Brands Inc. 31,470 -0,210 -0,66 12.12.18 -4,69 -14,99 12,03 -13,83 -46,04 264,24
L-3 Communications Hldgs Inc. 189,630 2,560 1,37 12.12.18 6,37 0,08 -9,56 -5,96 -2,45 176,47
Laboratory Corp.of Amer. Hldgs 140,850 -0,120 -0,09 12.12.18 -1,73 -15,91 -18,10 -25,47 -9,72 126,45
Lam Research Corp. 138,450 0,160 0,12 12.12.18 -7,51 -3,12 -7,93 -25,93 -23,75 501,43
Lamb Weston Holdings Inc. 76,390 1,220 1,62 12.12.18 1,19 -7,00 13,78 16,29 37,02
Leggett & Platt Inc. 37,550 -0,010 -0,03 12.12.18 -2,21 2,15 -18,86 -16,03 -18,95 155,96
Lennar Corp. 41,180 0,710 1,75 12.12.18 0,12 1,23 -21,14 -24,69 -32,96 325,85
Lincoln National Corp. 55,190 0,700 1,28 12.12.18 -7,24 -13,63 -14,02 -20,13 -28,85 218,28
LKQ Corp. 25,830 0,520 2,05 12.12.18 -3,11 -5,18 -21,51 -21,11 -36,36 406,47
Lockheed Martin Corp. 292,500 0,350 0,12 12.12.18 2,01 -4,14 -10,08 -7,19 -7,40 275,96
Loews Corp. 45,090 0,230 0,51 12.12.18 -4,00 -7,55 -9,58 -9,42 -10,39 64,44
Lowe's Companies Inc. 92,110 2,630 2,94 12.12.18 1,97 -3,70 -19,44 -8,35 8,38 318,87
Lyondellbasell Industries NV 85,440 0,620 0,73 12.12.18 -5,66 -10,29 -19,46 -27,39 -20,14
M&T Bank Corp. 154,310 0,750 0,49 12.12.18 -4,21 -6,55 -11,54 -11,90 -10,54 161,23
Macerich Co., The 47,110 -2,210 -4,48 12.12.18 -4,96 -7,63 -17,25 -18,54 -29,13 229,67
Macy's, Inc. 32,220 0,380 1,19 12.12.18 -0,62 -13,04 -11,46 -19,39 25,42 279,06
Marathon Oil Corp. 15,520 0,190 1,24 12.12.18 -7,73 -10,08 -24,51 -27,34 2,24 2,59
Marathon Petroleum Corp. 62,040 0,700 1,14 12.12.18 -2,05 -5,86 -26,32 -17,78 -3,80 9.826,40
Marriott International Inc. 110,070 0,040 0,04 12.12.18 -3,05 -4,35 -13,79 -21,30 -14,52 562,67
Marsh & McLennan Cos. Inc. 83,950 0,470 0,56 12.12.18 -3,26 -3,69 -2,09 2,75 -0,83 270,64
Martin Marietta Materials Inc. 179,070 1,410 0,79 12.12.18 -3,23 -1,33 -6,74 -22,24 -13,60 85,83
Masco Corp. 29,620 0,290 0,99 12.12.18 -3,46 -3,14 -23,32 -23,80 -29,79 225,23
MasterCard Inc. 200,290 2,550 1,29 12.12.18 -0,10 0,58 -6,42 0,08 31,34 1.342,91
Mattel Inc. 12,750 0,090 0,71 12.12.18 -6,04 -5,83 -20,61 -27,60 -12,79 -12,67
Maxim Integrated Products Inc. 54,180 1,090 2,05 12.12.18 -1,17 5,59 -5,89 -10,98 5,31 322,62
McCormick & Co. Inc. 154,890 1,980 1,29 12.12.18 2,20 3,79 18,08 47,26 53,25 426,30
McDonald's Corp. 183,480 -0,110 -0,06 12.12.18 -0,84 -0,48 11,38 10,05 6,53 202,82
McKesson Corp. 123,330 1,180 0,97 12.12.18 -1,38 -5,47 -5,34 -15,26 -20,20 237,61
Medtronic Inc. 95,710 0,240 0,25 12.12.18 -0,81 3,31 -0,56 10,40 16,72 219,99
Merck & Co. Inc. 78,010 0,880 1,14 12.12.18 -0,26 4,45 11,67 24,94 36,69 188,50
MetLife Inc. 39,570 0,340 0,87 12.12.18 -6,72 -11,54 -11,89 -16,68 -26,27 32,16
Metro One Telecom. Inc. 50,270 -0,290 -0,57 12.12.18 -4,28 -2,08 -8,68 -0,65 11,22 125.575,00
Mettler-Toledo Intl Inc. 607,640 9,750 1,63 12.12.18 -3,35 2,05 0,72 2,10 -2,78
MGM Resorts International 26,870 1,240 4,84 12.12.18 -0,48 6,71 -1,43 -15,08 -17,85
Michael Kors Holdings Ltd 38,830 0,380 0,99 12.12.18 -8,51 -18,68 -46,84 -43,01 -36,47
Microchip Technology Inc. 73,610 1,410 1,95 12.12.18 -1,15 5,67 -11,81 -28,32 -14,25 259,42
Micron Technology Inc. 36,030 0,820 2,33 12.12.18 -2,30 -3,77 -13,68 -40,50 -13,93 1.640,58
Microsoft Corp. 109,080 0,490 0,45 12.12.18 0,68 2,07 -2,35 7,67 27,46 463,43
Mid-America Apartm. Comm. Inc. 99,900 -2,030 -1,99 12.12.18 -1,09 -1,07 -3,68 2,89 -3,83
Mohawk Industries Inc. 118,910 -0,340 -0,29 12.12.18 -1,97 -2,16 -35,92 -44,42 -56,81 232,80
Molson Coors Brewing Co. 63,070 0,530 0,85 12.12.18 -2,77 -3,71 -0,02 -4,57 -21,31 38,37
Mondelez International Inc. 44,070 -0,140 -0,32 12.12.18 -0,94 -0,85 1,66 9,00 2,78 147,45
Monster Beverage Corp. (NEW) 57,440 -0,140 -0,24 12.12.18 -0,67 4,91 -1,12 2,24 -8,69 1.077,45
Moody's Corp. 148,430 3,020 2,08 12.12.18 -2,64 -1,09 -17,03 -16,64 -2,71 601,80
Morgan Stanley 40,810 0,190 0,47 12.12.18 -5,36 -7,52 -14,05 -20,48 -24,22 194,66
Mosaic Co., The 30,910 -2,090 -6,33 12.12.18 -12,39 -14,85 -0,67 4,89 24,54 -1,87
Motorola Solutions Inc. 130,250 0,790 0,61 12.12.18 0,13 2,57 3,38 14,98 39,50 667,08
MSCI Inc. 153,890 1,890 1,24 12.12.18 -0,28 3,94 -12,83 -9,34 20,23
Mylan N.V. 30,410 0,790 2,67 12.12.18 -7,74 -15,36 -19,36 -27,35 -22,60 226,64
Nasdaq Inc. 87,490 0,180 0,21 12.12.18 -3,22 -1,25 -4,40 -8,21 10,37 254,64
National Oilwell Varco Inc. 28,360 0,290 1,03 12.12.18 -10,48 -16,93 -36,63 -32,91 -14,42 12,54
Nektar Therapeutics 36,970 0,540 1,48 12.12.18 -2,71 -0,03 -41,16 -30,97 -32,65 547,46
NetApp Inc. 64,710 0,510 0,79 12.12.18 -4,80 -17,95 -24,04 -15,05 11,96 377,92
Netflix Inc. 274,880 9,560 3,60 12.12.18 -0,16 -6,53 -25,70 -24,45 48,00 6.647,05
Newell Brands Inc. 22,860 0,180 0,79 10.12.18 -2,89 12,94 5,20 -13,15 -26,64 80,71
Newfield Exploration Co. 15,950 0,370 2,37 12.12.18 -7,43 -23,13 -40,95 -46,62 -47,26 -23,72
Newmont Mining Corp. 34,080 0,740 2,22 12.12.18 0,86 8,09 13,00 -12,14 -1,47 -4,91
News Corp. 12,730 0,270 2,17 12.12.18 -1,28 -7,01 2,99 -20,44 -21,52
News Corp. 12,970 0,300 2,37 12.12.18 -2,26 -6,62 0,54 -20,91 -21,63
Nextera Energy Inc. 181,310 -1,670 -0,91 12.12.18 -0,47 1,58 5,11 15,18 15,43 291,68
Nielsen Holdings PLC 26,070 0,020 0,08 12.12.18 -3,73 -1,40 -2,43 -17,13 -31,27
NIKE Inc. 74,320 0,750 1,02 12.12.18 -1,94 -1,04 -10,46 0,04 19,54 502,15
NISOURCE Inc. 27,190 -0,310 -1,13 12.12.18 0,37 4,18 -2,51 14,58 3,03 494,38
Noble Energy Inc. 22,820 0,340 1,51 12.12.18 -6,21 -9,05 -22,01 -33,43 -15,01 -8,35
Nordstrom Inc. 50,170 1,130 2,30 12.12.18 -1,28 -21,98 -23,80 -5,21 9,69 296,29
Norfolk Southern Corp. 156,700 1,180 0,76 12.12.18 -5,54 -6,17 -11,97 0,27 10,77 251,98
Northern Trust Corp. 87,700 0,500 0,57 12.12.18 -7,10 -9,00 -16,73 -17,83 -11,01 91,53
Northrop Grumman Corp. 270,110 2,110 0,79 12.12.18 8,11 -2,68 -11,01 -17,99 -12,10 566,94
Norwegian Cruise Line Holdings 47,670 0,440 0,93 12.12.18 -2,26 -1,85 -10,93 -9,60
NRG Energy Inc. 42,210 0,540 1,30 12.12.18 5,98 6,06 18,00 25,96 47,07 77,88
Nucor Corp. 56,300 -0,160 -0,28 12.12.18 -5,63 -9,43 -11,42 -16,06 -9,12 27,84
NVIDIA Corp. 148,900 0,710 0,48 12.12.18 -5,23 -21,44 -44,48 -43,29 -21,98 1.631,40
O'Reilly Automotive Inc.[New] 353,630 11,060 3,23 12.12.18 2,05 1,21 2,82 24,18 43,25 1.138,63
Occidental Petroleum Corp. 65,410 0,710 1,10 12.12.18 -6,11 -9,35 -13,64 -22,98 -6,60 18,67
Omnicom Group Inc. 77,590 0,640 0,83 12.12.18 2,59 2,50 12,45 2,66 4,13 180,51
Oneok Inc. (New) 59,710 0,730 1,24 12.12.18 -1,47 -4,30 -8,29 -13,76 11,82 335,36
Oracle Corp. 47,320 0,860 1,85 12.12.18 -2,93 -3,86 -4,09 -2,33 -6,09 181,00
Paccar Inc. 58,410 0,600 1,04 12.12.18 -1,53 0,03 -16,56 -10,41 -18,77 116,33
Packaging Corp. of America 93,470 0,330 0,35 12.12.18 -2,60 -1,50 -17,20 -24,38 -20,08
Parker-Hannifin Corp. 155,930 2,100 1,37 12.12.18 -6,33 -5,53 -14,96 -10,47 -18,73 321,09
Paychex Inc. 68,120 -0,020 -0,03 12.12.18 -1,75 0,24 -8,09 -1,92 -0,86 161,10
PayPal Holdings Inc. 86,500 0,990 1,16 12.12.18 2,74 3,25 -6,39 1,74 17,50
Pentair PLC 39,590 -0,160 -0,40 12.12.18 -2,44 -5,38 -7,69 -10,35 -43,18 66,76
People's United Financial Inc. 15,790 0,080 0,51 12.12.18 -3,19 0,77 -12,57 -16,89 -15,74 -9,41
PepsiCo Inc. 117,000 -0,290 -0,25 12.12.18 -0,68 0,03 2,77 11,98 -0,34 124,87
PerkinElmer Inc. 86,990 1,620 1,90 12.12.18 0,38 5,99 -8,36 9,57 22,31 554,55
Perrigo Co. PLC 58,860 0,370 0,63 12.12.18 -6,33 -10,25 -21,65 -20,50 -31,49 82,34
Pfizer Inc. 44,160 0,150 0,34 12.12.18 -2,17 0,11 4,13 21,65 20,72 160,99
PG & E Corp. 26,390 0,330 1,27 12.12.18 -1,35 -20,01 -42,52 -32,83 -50,61 -28,56
Philip Morris Internat. Inc. 83,820 -0,510 -0,60 12.12.18 -1,88 -4,71 4,71 4,36 -21,88 102,66
Phillips 66 89,250 0,830 0,94 12.12.18 -2,35 -8,62 -20,43 -22,76 -9,91
Pinnacle West Capital Corp. 91,120 -0,540 -0,59 12.12.18 1,14 2,54 14,23 22,18 2,24 206,70
Pioneer Natural Resources Co. 140,360 1,690 1,22 12.12.18 -3,65 -9,05 -17,42 -27,26 -11,72 672,06
PNC Financial Services Group 122,740 0,280 0,23 12.12.18 -5,23 -7,55 -13,14 -16,61 -15,85 149,67
PPG Industries Inc. 103,460 0,420 0,41 12.12.18 -3,06 -1,84 -7,65 -0,07 -10,73 371,45
PPL Corp. 30,690 0,190 0,62 12.12.18 -0,07 -2,69 1,82 17,41 -9,84 2,06
Principal Financial Group Inc. 42,780 0,710 1,69 12.12.18 -6,74 -11,94 -22,30 -24,63
Progressive Corp. 64,060 0,590 0,93 12.12.18 -0,88 -10,90 -6,29 3,46 16,16 318,42
ProLogis Inc. 64,640 -1,830 -2,75 12.12.18 -3,32 -4,60 -2,69 -1,33 -2,31 710,03
Prudential Financial Inc. 82,850 0,710 0,86 12.12.18 -7,10 -11,55 -14,39 -16,95 -28,82 209,14
Public Service Ent. Group Inc. 55,720 -0,070 -0,13 12.12.18 -0,16 3,61 4,50 7,30 7,13 89,39
Public Storage 204,290 -6,450 -3,06 12.12.18 -3,55 -1,70 -2,61 -5,39 -3,51 197,02
Pulte Group Inc. 26,150 0,400 1,55 12.12.18 2,03 8,91 -4,81 -20,71 -22,38 142,80
PVH Corp. 98,580 -0,510 -0,51 12.12.18 -8,12 -17,74 -29,38 -40,69 -25,85 440,76
Qorvo Inc. 60,640 1,060 1,78 12.12.18 -5,50 -4,95 -17,45 -24,89 -10,42 987,71
QUALCOMM Inc. 57,720 0,370 0,65 12.12.18 -0,07 5,93 -19,55 -3,46 -11,01 70,17
Quanta Services Inc. 31,350 0,650 2,12 12.12.18 -6,47 -6,78 -10,81 -14,90 -19,86 72,92
Quest Diagnostics Inc. 88,280 0,180 0,20 12.12.18 -1,63 -8,11 -18,18 -20,48 -9,00 86,60
Ralph Lauren Corp. 108,140 2,830 2,69 12.12.18 -1,57 -10,65 -19,50 -24,32 7,99 144,16
Raymond James Financial Inc. 76,470 1,500 2,00 12.12.18 0,29 -1,96 -16,52 -23,19 -14,59
Raytheon Co. 171,810 0,780 0,46 12.12.18 3,70 -5,61 -13,38 -16,84 -8,07 238,21
Realty Income Corp. 65,170 -1,130 -1,70 12.12.18 1,76 3,63 12,15 20,75 16,92 212,87
Red Hat Inc. 176,740 0,210 0,12 12.12.18 -0,62 2,23 16,35 2,16 40,55 1.417,08
Regency Centers Corp. 62,210 -1,720 -2,69 12.12.18 -1,55
Regeneron Pharmaceuticals Inc. 377,960 2,240 0,60 12.12.18 1,38 9,11 -2,81 22,11 -0,99 2.145,75
Regions Financial Corp. 14,260 0,100 0,71 12.12.18 -8,53 -15,77 -25,54 -24,75 -17,62 60,95
Republic Services Inc. 73,690 -0,450 -0,61 12.12.18 -3,10 -1,33 -1,09 6,17 13,72 209,23
ResMed Inc. 115,160 1,220 1,07 12.12.18 2,70 11,01 3,14 7,68 34,16
Robert Half International Inc. 59,680 0,330 0,56 12.12.18 -0,53 -4,91 -17,50 -14,01 9,79 227,73
Rockwell Automation Inc. 159,140 1,190 0,75 12.12.18 -7,19 -4,12 -14,14 -11,69 -16,57 447,81
Rollins Inc. 38,280 0,050 0,13 12.12.18 -38,76 -36,59 -39,70 -27,49 -15,50
Roper Technologies Inc. 284,350 2,860 1,02 12.12.18 -0,81 -1,72 -6,62 -0,69 11,33 618,24
Ross Stores Inc. 80,900 0,350 0,43 12.12.18 -1,05 -20,51 -16,83 -5,61 5,88 1.057,37
Royal Caribbean Cruises Ltd. 105,600 1,580 1,52 12.12.18 -3,23 0,89 -14,63 -0,09 -14,72 951,79
S&P Global Inc. 169,150 2,350 1,41 12.12.18 -4,77 -7,17 -19,45 -18,48 -1,98
salesforce.com Inc. 140,090 3,300 2,41 12.12.18 0,61 7,35 -9,83 2,81 35,13 1.653,87
SBA Communications Corp. 168,970 -2,320 -1,35 12.12.18 -0,56 -1,73 6,61 5,11 1,99 937,26
SCANA Corp. 48,000 1,060 2,26 12.12.18 1,48 18,14 34,42 28,79 12,18 37,93
Schlumberger N.V. (Ltd.) 41,440 0,200 0,48 12.12.18 -6,07 -16,20 -31,86 -39,59 -35,43 0,83
Schwab Corp., Charles 41,880 0,630 1,53 12.12.18 -2,63 -10,38 -17,41 -26,92 -18,77 150,63
Seagate Technology PLC 40,000 0,500 1,27 12.12.18 -3,78 -4,49 -19,14 -29,95 -5,03 659,01
Sealed Air Corp. 33,460 -0,390 -1,15 12.12.18 -3,88 -4,26 -18,03 -24,47 -29,87 126,85
Sempra Energy 116,660 -0,400 -0,34 12.12.18 -0,17 1,09 -0,95 -0,40 1,72 174,95
Sherwin-Williams Co. 391,550 0,700 0,18 12.12.18 -3,70 -4,28 -16,36 -2,71 -3,80 605,11
Simon Property Group Inc. 182,500 -4,950 -2,64 12.12.18 -1,37 -2,88 -1,32 9,84 9,71 250,96
Skyworks Solutions Inc. 69,310 0,790 1,15 12.12.18 -2,05 -4,85 -17,86 -31,29 -28,15 1.471,66
SL Green Realty Corp. 90,230 -2,570 -2,77 12.12.18 -4,52 -4,67 -10,90 -7,41 -12,42 352,73
Smith Corp., A.O. 42,570 -0,090 -0,21 12.12.18 -5,74 -6,11 -27,85 -34,75 -30,28
Snap-on Inc. 148,390 1,050 0,71 12.12.18 -5,18 -6,68 -20,40 -6,41 -13,11 300,30
Southern Co., The 47,010 -0,550 -1,16 12.12.18 -0,49 0,26 6,55 8,22 -8,17 29,36
Southwest Airlines Co. 50,900 -0,180 -0,35 12.12.18 -3,60 -1,91 -17,06 -0,14 -19,75 597,26
Stanley Black & Decker Inc. 119,830 0,020 0,02 12.12.18 -5,16 -1,75 -17,85 -17,07 -27,79 281,62
Starbucks Corp. 66,130 0,210 0,32 12.12.18 -0,80 -2,62 20,30 17,09 11,57 1.316,06
State Street Corp. 63,430 0,340 0,54 12.12.18 -6,46 -10,49 -26,71 -36,20 -35,39 70,33
Stryker Corp. 172,610 0,950 0,55 12.12.18 0,21 1,53 -0,39 6,20 12,33 331,53
SunTrust Banks Inc. 54,630 0,120 0,22 12.12.18 -6,89 -13,22 -23,47 -22,10 -16,65 98,65
SVB Financial Group 204,030 3,130 1,56 12.12.18 -15,19 -15,33 -35,72 -36,27 -13,14 241,53
Symantec Corp. 22,750 0,470 2,11 12.12.18 3,55 4,21 13,18 6,16 -21,33 82,15
Synchrony Financial 24,550 0,150 0,61 12.12.18 -1,41 -9,78 -23,97 -30,45 -34,29
Synopsys Inc. 89,760 0,690 0,77 12.12.18 0,35 0,02 -12,08 -1,13 2,49 403,99
Sysco Corp. 65,550 0,250 0,38 12.12.18 -0,88 -2,70 -12,00 -1,01 6,00 199,04
T. Rowe Price Group Inc. 94,020 1,990 2,16 12.12.18 -1,31 -1,63 -14,63 -25,52 -8,40 199,14
Take-Two Interactive Softw.Inc 104,190 -1,230 -1,17 12.12.18 2,46 -4,44 -21,94 -9,16 -3,19 743,64
Tapestry Inc. 36,040 1,080 3,09 12.12.18 -5,70 -12,67 -28,68 -21,34 -13,20 77,98
Target Corp. 67,790 1,010 1,51 12.12.18 -2,19 -20,69 -23,53 -14,27 11,09 89,15
TE Connectivity Ltd. 74,760 0,910 1,23 12.12.18 0,80 -2,48 -17,60 -23,32 -21,84 365,50
TechnipFMC PLC 21,240 0,650 3,16 12.12.18 -9,66 -14,25 -29,20 -35,18 -26,17 80,00
Texas Instruments Inc. 95,810 1,270 1,34 12.12.18 -0,32 2,50 -8,35 -16,98 -2,66 514,56
Textron Inc. 51,010 0,710 1,41 12.12.18 -6,32 -7,49 -26,86 -25,10 -6,52 232,75
The Coca-Cola Co. 49,220 -0,320 -0,65 12.12.18 -0,73 -1,30 6,44 10,83 8,68 120,87
The Goldman Sachs Group Inc. 176,700 -0,100 -0,06 12.12.18 -4,13 -14,24 -22,55 -24,04 -31,43 160,85
The Home Depot Inc. 174,210 2,000 1,16 12.12.18 -0,75 -2,91 -17,82 -13,46 -4,17 642,27
The Procter & Gamble Co. 94,030 0,120 0,13 12.12.18 0,77 1,43 13,14 21,74 4,65 59,54
The Walt Disney Co. 112,210 0,240 0,21 12.12.18 -0,58 -3,85 2,51 7,55 4,45 396,28
Thermo Fisher Scientific Inc. 241,270 3,770 1,59 12.12.18 -1,07 2,09 0,93 10,70 27,33 692,09
Tiffany & Co. 85,940 1,760 2,09 12.12.18 -5,45 -21,23 -31,10 -36,79 -10,01 276,76
TJX Companies Inc. 46,100 0,370 0,81 12.12.18 -2,27 -15,52 -16,40 -3,37 25,24 831,31
Torchmark Corp. 78,550 0,500 0,64 12.12.18 -4,46 -8,54 -6,81 -7,17 -12,50 344,91
Total System Services Inc. 85,750 1,070 1,26 12.12.18 -0,16 -5,35 -13,79 -3,04 11,36 526,37
Tractor Supply Co. 91,750 1,450 1,61 12.12.18 -1,33 -4,63 2,01 21,07 35,24 841,51
TransDigm Group Inc. 353,560 7,830 2,26 12.12.18 -0,07 3,04 -0,55 3,08 30,95
Travelers Companies Inc.,The 122,010 1,040 0,86 12.12.18 -3,69 -3,96 -3,85 -5,84 -9,18 200,67
Tripadvisor Inc. 62,560 0,770 1,25 12.12.18 -1,04 -0,18 22,28 7,33 78,23 62.559.900,00
Twitter Inc. 36,250 1,800 5,22 12.12.18 11,33 13,25 21,85 -16,65 67,44
Tyson Foods Inc. 55,680 -0,120 -0,22 12.12.18 -4,40 -9,63 -12,62 -22,10 -32,65 683,12
U.S. Bancorp 50,130 0,010 0,02 12.12.18 -4,70 -5,27 -6,39 -2,15 -9,68 94,00
UDR Inc. 41,180 -1,260 -2,97 12.12.18 -1,44 0,24 1,80 10,40 4,60 176,19
Ulta Beauty Inc. 255,150 7,330 2,96 12.12.18 -12,39 -17,42 -10,04 2,76 18,75 2.676,39
Under Armour Inc. 19,810 -2,310 -10,44 12.12.18 -15,12 -12,31 -1,34 -17,46 45,77 510,01
Under Armour Inc. 19,010 -1,860 -8,91 12.12.18 -13,47 -8,69 1,98 -14,10 53,55
Union Pacific Corp. 147,340 -0,500 -0,34 12.12.18 -3,72 -0,29 -6,15 0,85 12,73 588,34
United Continental Holdg. Inc. 89,630 1,510 1,71 12.12.18 -2,49 -1,72 2,08 23,82 41,46 801,71
United Parcel Service Inc. 101,210 -2,370 -2,29 12.12.18 -5,21 -6,04 -17,92 -14,48 -14,34 94,52
United Rentals Inc. 108,300 6,440 6,32 12.12.18 1,89 -10,61 -35,19 -36,22 -33,82 1.451,58
United Technologies Corp. 119,660 0,730 0,61 12.12.18 -1,00 -6,73 -10,63 -6,41 -3,09 145,10
UnitedHealth Group Inc. 270,640 3,420 1,28 12.12.18 -2,84 -0,64 3,03 6,73 21,64 1.049,70
Universal Health Services Inc. 131,270 2,200 1,70 12.12.18 -2,47 0,91 5,83 13,15 16,75 641,85
Unum Group 30,270 -0,040 -0,13 12.12.18 -9,94 -18,23 -13,91 -22,64 -46,33 93,79
V.F. Corp. 76,650 0,500 0,66 12.12.18 -4,59 -8,31 -14,50 -9,26 5,68 477,84
Valero Energy Corp. 73,640 0,370 0,50 12.12.18 -7,38 -14,34 -36,69 -37,60 -15,30 284,14
Varian Medical Systems Inc. 120,860 1,710 1,44 12.12.18 -0,46 2,48 10,14 -1,21 8,44 231,12
Ventas Inc. 63,130 -1,720 -2,65 12.12.18 -0,05 4,80 7,16 14,41 -1,08 132,52
Verisign Inc. 157,140 1,720 1,11 12.12.18 2,34 2,48 -2,61 12,32 37,40 638,09
Verisk Analytics Inc. 116,180 1,500 1,31 12.12.18 -3,50 -4,97 -4,38 6,17 22,81
Verizon Communications Inc. 57,250 -1,600 -2,72 12.12.18 -1,45 -2,50 4,15 17,29 7,63 74,54
Vertex Pharmaceuticals Inc. 175,450 2,220 1,28 12.12.18 -1,39 1,50 -1,62 16,20 24,51 579,78
Viacom Inc. 29,520 0,000 0,00 12.12.18 -4,40 -9,36 -0,40 4,35 -0,24 79,34
VISA Inc. 137,800 1,010 0,74 12.12.18 -0,61 -1,37 -5,98 2,18 21,45 940,98
Vornado Realty Trust 68,440 -1,540 -2,20 12.12.18 -3,35 -2,47 -9,57 -5,86 -11,93 29,75
Vulcan Materials Co. 100,620 0,960 0,96 12.12.18 0,06 -2,97 -7,58 -23,17 -17,19 48,30
Walgreens Boots Alliance Inc. 82,440 0,630 0,77 12.12.18 -0,46 0,77 17,14 29,42 14,48 215,26
Walmart Inc. 93,110 -0,740 -0,79 12.12.18 -2,82 -10,36 -2,98 10,71 -3,71 70,44
Waste Management Inc. (Del.) 90,890 -0,580 -0,63 12.12.18 -1,87 0,03 -0,94 8,33 7,38 203,88
Waters Corp. 190,440 0,650 0,34 12.12.18 -2,56 -2,69 -1,40 -8,86 -3,57 411,80
WEC Energy Group Inc. 73,870 -1,020 -1,36 12.12.18 0,81 4,26 7,53 24,51 9,18 253,28
WellCare Health Plans Inc. 244,780 2,370 0,98 12.12.18 -2,97 -8,44 -19,76 2,25 18,88
Wells Fargo & Co. 47,740 -0,020 -0,04 12.12.18 -7,80 -8,81 -14,66 -13,80 -20,87 78,67
Welltower Inc. 71,720 -1,330 -1,82 12.12.18 -0,57 2,65 7,57 23,00 8,47 95,80
Western Digital Corp. 40,970 -0,630 -1,51 12.12.18 -4,83 -5,73 -27,58 -50,11 -49,90 227,24
Western Union Co. 18,540 0,170 0,93 12.12.18 0,98 -0,11 -3,94 -12,13 -4,92 35,23
WestRock Co. 44,410 0,210 0,48 12.12.18 -4,52 -0,85 -19,39 -28,16 -30,54
Weyerhaeuser Co. 24,720 -0,370 -1,47 12.12.18 -1,59 -8,44 -28,33 -35,56 -30,62 71,78
Whirlpool Corp. 117,370 1,940 1,68 12.12.18 -3,01 1,73 -5,73 -22,60 -29,51 185,99
Williams Cos.Inc., The 24,190 0,260 1,09 12.12.18 -3,43 -2,58 -14,79 -9,50 -16,82 64,33
WILLIS TOWERS WATSON PLC 155,760 0,860 0,56 12.12.18 -1,00 -1,73 4,93 -0,96 0,36 153,23
Wynn Resorts Ltd. 109,400 3,860 3,66 12.12.18 -0,87 9,95 -18,93 -39,02 -32,60 159,98
Xcel Energy Inc. 52,940 -0,580 -1,08 12.12.18 0,19 3,58 8,95 24,33
Xerox Corp. 25,170 0,130 0,52 12.12.18 -5,73 -7,84 -8,14 -9,23 -15,37 -18,81
Xilinx Inc. 90,540 2,410 2,73 12.12.18 -0,82 9,97 18,96 29,34 33,78 422,15
Xylem Inc. 65,630 0,210 0,32 12.12.18 -3,54 -4,87 -17,98 -8,07 -2,83
Yum! Brands, Inc. 90,460 0,650 0,72 12.12.18 -0,24 1,13 2,41 8,69 10,33 364,80
Zimmer Biomet Holdings Inc. 112,950 0,940 0,84 12.12.18 0,86 -1,30 -10,49 -1,05 -0,52 190,29
Zions Bancorporation N.A. 43,720 0,270 0,62 12.12.18 -4,73 -11,57 -16,33 -22,41 -13,36 70,05
Zoetis Inc. 90,730 0,930 1,04 12.12.18 0,18 -3,92 2,18 4,11 25,61
Zum Index